createdAt,value
2018-05-29T00:00:05.240Z,47.90
2018-05-29T00:02:33.509Z,46.70
2018-05-29T00:05:02.577Z,47.90
2018-05-29T00:07:30.837Z,47.90
2018-05-29T00:09:59.096Z,48.90
2018-05-29T00:12:28.317Z,50.10
2018-05-29T00:14:56.602Z,49.10
2018-05-29T00:17:24.865Z,49.90
2018-05-29T00:19:53.152Z,51.00
2018-05-29T00:22:21.777Z,48.80
2018-05-29T00:24:50.037Z,49.40
2018-05-29T00:27:18.316Z,52.60
2018-05-29T00:29:47.336Z,50.80
2018-05-29T00:32:15.601Z,50.90
2018-05-29T00:34:44.953Z,50.20
2018-05-29T00:37:13.224Z,50.10
2018-05-29T00:39:41.479Z,50.00
2018-05-29T00:42:09.757Z,49.70
2018-05-29T00:44:38.016Z,50.50
2018-05-29T00:47:06.283Z,51.00
2018-05-29T00:49:34.565Z,50.70
2018-05-29T00:52:02.813Z,50.30
2018-05-29T00:54:31.085Z,50.50
2018-05-29T00:56:59.748Z,50.50
2018-05-29T00:59:28.008Z,51.20
2018-05-29T01:01:56.269Z,51.80
2018-05-29T01:04:24.561Z,51.60
2018-05-29T01:06:52.824Z,51.30
2018-05-29T01:09:21.068Z,52.20
2018-05-29T01:11:50.125Z,54.10
2018-05-29T01:14:18.380Z,54.20
2018-05-29T01:16:46.645Z,53.00
2018-05-29T01:19:15.160Z,52.90
2018-05-29T01:21:43.416Z,53.20
2018-05-29T01:24:11.866Z,54.50
2018-05-29T01:26:43.006Z,53.90
2018-05-29T01:29:12.038Z,53.60
2018-05-29T01:31:40.300Z,53.60
2018-05-29T01:34:08.589Z,53.50
2018-05-29T01:36:36.844Z,55.10
2018-05-29T01:39:05.106Z,57.20
2018-05-29T01:41:33.642Z,56.00
2018-05-29T01:44:01.897Z,57.10
2018-05-29T01:46:30.148Z,58.80
2018-05-29T01:48:58.756Z,56.70
2018-05-29T01:51:27.021Z,56.50
2018-05-29T01:53:55.270Z,55.60
2018-05-29T01:56:24.316Z,56.60
2018-05-29T01:58:52.576Z,56.60
2018-05-29T02:01:20.832Z,56.30
2018-05-29T02:03:49.344Z,56.10
2018-05-29T02:06:17.656Z,57.50
2018-05-29T02:08:45.916Z,58.00
2018-05-29T02:11:14.205Z,59.00
2018-05-29T02:13:42.464Z,59.50
2018-05-29T02:16:10.712Z,59.60
2018-05-29T02:18:39.000Z,63.30
2018-05-29T02:21:07.264Z,59.50
2018-05-29T02:23:35.526Z,64.00
2018-05-29T02:26:04.201Z,62.00
2018-05-29T02:28:33.232Z,60.30
2018-05-29T02:31:01.493Z,60.30
2018-05-29T02:33:29.895Z,60.60
2018-05-29T02:35:58.157Z,59.50
2018-05-29T02:38:26.491Z,61.80
2018-05-29T02:40:54.763Z,59.30
2018-05-29T02:43:23.012Z,58.90
2018-05-29T02:45:51.262Z,60.10
2018-05-29T02:48:20.180Z,59.50
2018-05-29T02:50:48.437Z,60.20
2018-05-29T02:53:16.696Z,63.00
2018-05-29T02:55:44.981Z,65.60
2018-05-29T02:58:13.239Z,65.70
2018-05-29T03:00:41.500Z,63.50
2018-05-29T03:03:09.781Z,66.00
2018-05-29T03:05:38.797Z,64.50
2018-05-29T03:08:07.123Z,64.60
2018-05-29T03:10:35.461Z,64.40
2018-05-29T03:13:03.713Z,64.20
2018-05-29T03:15:32.733Z,69.00
2018-05-29T03:18:01.036Z,69.00
2018-05-29T03:20:29.270Z,70.70
2018-05-29T03:22:57.532Z,67.30
2018-05-29T03:25:25.824Z,66.10
2018-05-29T03:27:54.200Z,69.10
2018-05-29T03:30:23.219Z,67.70
2018-05-29T03:32:51.924Z,67.70
2018-05-29T03:35:20.175Z,67.30
2018-05-29T03:37:48.428Z,67.00
2018-05-29T03:40:17.477Z,66.80
2018-05-29T03:42:45.737Z,66.80
2018-05-29T03:45:13.984Z,67.50
2018-05-29T03:47:42.444Z,69.00
2018-05-29T03:50:11.464Z,69.30
2018-05-29T03:52:39.716Z,69.20
2018-05-29T03:55:08.254Z,72.40
2018-05-29T03:57:36.516Z,69.80
2018-05-29T04:00:04.785Z,69.60
2018-05-29T04:02:33.096Z,73.10
2018-05-29T04:05:01.357Z,74.10
2018-05-29T04:07:29.613Z,71.80
2018-05-29T04:09:57.907Z,71.30
2018-05-29T04:12:26.169Z,71.00
2018-05-29T04:14:54.424Z,71.90
2018-05-29T04:17:23.058Z,70.40
2018-05-29T04:19:51.317Z,71.20
2018-05-29T04:22:19.583Z,72.10
2018-05-29T04:24:47.861Z,70.80
2018-05-29T04:27:16.112Z,74.00
2018-05-29T04:29:44.593Z,74.30
2018-05-29T04:32:13.650Z,73.30
2018-05-29T04:34:41.926Z,73.20
2018-05-29T04:37:10.185Z,74.90
2018-05-29T04:39:38.760Z,76.70
2018-05-29T04:42:07.027Z,75.10
2018-05-29T04:44:35.278Z,77.00
2018-05-29T04:47:04.388Z,74.80
2018-05-29T04:49:32.599Z,75.00
2018-05-29T04:52:00.852Z,78.80
2018-05-29T04:54:29.133Z,75.10
2018-05-29T04:56:57.388Z,78.20
2018-05-29T04:59:25.643Z,76.30
2018-05-29T05:01:54.205Z,77.50
2018-05-29T05:04:23.229Z,75.20
2018-05-29T05:06:52.253Z,77.10
2018-05-29T05:09:20.524Z,77.20
2018-05-29T05:11:48.777Z,75.40
2018-05-29T05:14:17.108Z,77.40
2018-05-29T05:16:45.369Z,76.30
2018-05-29T05:19:13.629Z,76.10
2018-05-29T05:21:41.885Z,78.40
2018-05-29T05:24:10.509Z,77.30
2018-05-29T05:26:38.765Z,74.90
2018-05-29T05:29:07.021Z,77.60
2018-05-29T05:31:36.378Z,76.00
2018-05-29T05:34:04.624Z,75.90
2018-05-29T05:36:32.888Z,75.30
2018-05-29T05:39:01.180Z,77.80
2018-05-29T05:41:29.437Z,76.60
2018-05-29T05:43:57.692Z,74.50
2018-05-29T05:46:26.296Z,76.00
2018-05-29T05:48:54.564Z,75.90
2018-05-29T05:51:23.612Z,75.10
2018-05-29T05:53:51.967Z,75.00
2018-05-29T05:56:20.224Z,74.00
2018-05-29T05:58:48.487Z,73.90
2018-05-29T06:01:18.040Z,74.50
2018-05-29T06:03:46.381Z,74.40
2018-05-29T06:06:15.396Z,74.50
2018-05-29T06:08:44.224Z,74.60
2018-05-29T06:11:13.993Z,73.80
2018-05-29T06:13:42.245Z,73.70
2018-05-29T06:16:10.537Z,74.80
2018-05-29T06:18:38.797Z,77.80
2018-05-29T06:21:07.820Z,73.80
2018-05-29T06:23:36.104Z,73.70
2018-05-29T06:26:04.517Z,73.80
2018-05-29T06:28:32.817Z,72.80
2018-05-29T06:31:01.344Z,74.20
2018-05-29T06:33:30.099Z,74.50
2018-05-29T06:35:59.116Z,74.20
2018-05-29T06:38:27.388Z,74.20
2018-05-29T06:40:55.640Z,73.50
2018-05-29T06:43:23.923Z,72.30
2018-05-29T06:45:52.360Z,73.90
2018-05-29T06:48:20.600Z,71.80
2018-05-29T06:50:48.868Z,72.00
2018-05-29T06:53:17.360Z,72.10
2018-05-29T06:55:45.636Z,71.90
2018-05-29T06:58:13.892Z,72.00
2018-05-29T07:00:42.185Z,73.00
2018-05-29T07:03:10.544Z,72.40
2018-05-29T07:05:39.565Z,72.90
2018-05-29T07:08:07.844Z,72.90
2018-05-29T07:10:36.106Z,72.20
2018-05-29T07:13:04.357Z,71.50
2018-05-29T07:15:33.705Z,71.10
2018-05-29T07:18:01.972Z,71.00
2018-05-29T07:20:30.229Z,70.80
2018-05-29T07:22:58.527Z,71.10
2018-05-29T07:25:26.774Z,71.50
2018-05-29T07:27:55.047Z,71.00
2018-05-29T07:30:23.325Z,70.60
2018-05-29T07:32:52.357Z,69.80
2018-05-29T07:35:21.013Z,69.90
2018-05-29T07:37:49.479Z,70.90
2018-05-29T07:40:18.501Z,70.00
2018-05-29T07:42:46.759Z,69.90
2018-05-29T07:45:17.964Z,68.90
2018-05-29T07:47:46.276Z,68.90
2018-05-29T07:50:15.323Z,68.90
2018-05-29T07:52:43.604Z,68.70
2018-05-29T07:55:13.007Z,68.60
2018-05-29T07:57:41.273Z,67.50
2018-05-29T08:00:09.636Z,66.70
2018-05-29T08:02:37.961Z,66.90
2018-05-29T08:05:06.457Z,66.90
2018-05-29T08:07:34.981Z,66.30
2018-05-29T08:10:03.237Z,66.40
2018-05-29T08:12:32.248Z,65.60
2018-05-29T08:15:00.528Z,65.60
2018-05-29T08:17:28.800Z,65.90
2018-05-29T08:19:57.089Z,65.60
2018-05-29T08:22:25.522Z,65.40
2018-05-29T08:24:54.617Z,65.50
2018-05-29T08:27:22.869Z,65.50
2018-05-29T08:29:51.148Z,65.60
2018-05-29T08:32:19.413Z,65.10
2018-05-29T08:34:47.701Z,65.40
2018-05-29T08:37:16.357Z,65.40
2018-05-29T08:39:44.644Z,65.80
2018-05-29T08:42:12.897Z,65.70
2018-05-29T08:44:41.521Z,65.00
2018-05-29T08:47:09.809Z,64.30
2018-05-29T08:49:38.073Z,63.90
2018-05-29T08:52:07.888Z,62.60
2018-05-29T08:54:36.157Z,62.50
2018-05-29T08:57:04.436Z,62.10
2018-05-29T08:59:32.720Z,61.90
2018-05-29T09:02:00.979Z,61.50
2018-05-29T09:04:29.244Z,60.50
2018-05-29T09:06:58.149Z,60.50
2018-05-29T09:09:26.478Z,61.00
2018-05-29T09:11:55.556Z,59.40
2018-05-29T09:14:23.838Z,59.40
2018-05-29T09:16:52.876Z,59.60
2018-05-29T09:19:21.128Z,59.60
2018-05-29T09:21:49.417Z,59.60
2018-05-29T09:24:17.665Z,59.20
2018-05-29T09:26:46.692Z,58.30
2018-05-29T09:29:15.095Z,58.30
2018-05-29T09:31:43.421Z,58.20
2018-05-29T09:34:12.572Z,58.40
2018-05-29T09:36:40.852Z,58.40
2018-05-29T09:39:09.492Z,58.80
2018-05-29T09:41:37.751Z,59.30
2018-05-29T09:44:06.035Z,59.60
2018-05-29T09:46:35.050Z,59.60
2018-05-29T09:49:03.317Z,59.60
2018-05-29T09:51:32.005Z,60.10
2018-05-29T09:54:00.405Z,58.80
2018-05-29T09:56:28.649Z,59.00
2018-05-29T09:58:56.920Z,58.50
2018-05-29T10:01:25.184Z,59.00
2018-05-29T10:03:54.204Z,57.70
2018-05-29T10:06:22.493Z,57.20
2018-05-29T10:08:50.747Z,56.40
2018-05-29T10:11:19.217Z,56.40
2018-05-29T10:13:47.557Z,56.50
2018-05-29T10:16:15.809Z,57.00
2018-05-29T10:18:44.064Z,56.80
2018-05-29T10:21:12.337Z,55.80
2018-05-29T10:23:40.596Z,55.50
2018-05-29T10:26:09.616Z,54.70
2018-05-29T10:28:37.911Z,54.60
2018-05-29T10:31:06.157Z,55.40
2018-05-29T10:33:34.426Z,56.30
2018-05-29T10:36:03.655Z,54.60
2018-05-29T10:38:31.905Z,54.60
2018-05-29T10:41:00.342Z,55.30
2018-05-29T10:43:28.625Z,54.90
2018-05-29T10:45:56.901Z,54.50
2018-05-29T10:48:25.142Z,54.50
2018-05-29T10:50:53.425Z,54.50
2018-05-29T10:53:21.686Z,53.90
2018-05-29T10:55:49.942Z,53.50
2018-05-29T10:58:18.280Z,53.30
2018-05-29T11:00:46.533Z,53.50
2018-05-29T11:03:14.798Z,54.20
2018-05-29T11:05:43.075Z,54.60
2018-05-29T11:08:11.333Z,53.40
2018-05-29T11:10:39.589Z,52.00
2018-05-29T11:13:07.881Z,51.60
2018-05-29T11:15:36.917Z,50.70
2018-05-29T11:18:05.194Z,50.60
2018-05-29T11:20:33.699Z,50.30
2018-05-29T11:23:01.981Z,48.00
2018-05-29T11:25:30.464Z,46.60
2018-05-29T11:27:59.512Z,42.60
2018-05-29T11:30:27.761Z,42.50
2018-05-29T11:32:56.783Z,40.80
2018-05-29T11:35:25.061Z,40.70
2018-05-29T11:37:53.338Z,39.80
2018-05-29T11:40:21.692Z,40.50
2018-05-29T11:42:50.278Z,41.90
2018-05-29T11:45:19.308Z,42.60
2018-05-29T11:47:47.549Z,42.50
2018-05-29T11:50:15.841Z,42.60
2018-05-29T11:52:44.096Z,43.30
2018-05-29T11:55:13.117Z,43.20
2018-05-29T11:57:41.469Z,43.10
2018-05-29T12:00:10.492Z,44.30
2018-05-29T12:02:38.747Z,44.30
2018-05-29T12:05:07.088Z,44.70
2018-05-29T12:07:35.424Z,43.80
2018-05-29T12:10:03.707Z,43.80
2018-05-29T12:12:31.982Z,43.80
2018-05-29T12:15:00.237Z,43.80
2018-05-29T12:17:28.492Z,44.30
2018-05-29T12:19:57.652Z,42.90
2018-05-29T12:22:26.066Z,42.80
2018-05-29T12:24:54.288Z,43.00
2018-05-29T12:27:22.980Z,43.50
2018-05-29T12:29:51.233Z,43.70
2018-05-29T12:32:19.488Z,43.40
2018-05-29T12:34:48.537Z,44.20
2018-05-29T12:37:16.794Z,44.20
2018-05-29T12:39:45.083Z,45.40
2018-05-29T12:42:13.362Z,45.60
2018-05-29T12:44:42.372Z,45.80
2018-05-29T12:47:10.621Z,46.50
2018-05-29T12:49:39.322Z,46.90
2018-05-29T12:52:07.574Z,47.10
2018-05-29T12:54:36.024Z,46.60
2018-05-29T12:57:05.082Z,46.20
2018-05-29T12:59:34.486Z,46.10
2018-05-29T13:02:02.729Z,46.10
2018-05-29T13:04:31.106Z,44.70
2018-05-29T13:06:59.793Z,43.90
2018-05-29T13:09:28.133Z,43.00
2018-05-29T13:11:59.172Z,38.10
2018-05-29T13:14:27.696Z,37.70
2018-05-29T13:16:58.374Z,35.60
2018-05-29T13:19:26.672Z,35.30
2018-05-29T13:21:54.956Z,34.40
2018-05-29T13:24:24.553Z,35.80
2018-05-29T13:26:54.480Z,35.70
2018-05-29T13:29:23.557Z,33.90
2018-05-29T13:31:52.934Z,34.00
2018-05-29T13:34:21.698Z,34.00
2018-05-29T13:36:55.227Z,33.90
2018-05-29T13:39:23.488Z,31.90
2018-05-29T13:41:51.797Z,31.00
2018-05-29T13:44:20.180Z,30.60
2018-05-29T13:46:49.447Z,33.50
2018-05-29T13:49:17.786Z,33.40
2018-05-29T13:51:45.972Z,32.60
2018-05-29T13:54:14.328Z,29.70
2018-05-29T13:56:43.505Z,29.60
2018-05-29T13:59:12.905Z,29.60
2018-05-29T14:01:41.184Z,32.20
2018-05-29T14:04:09.473Z,31.00
2018-05-29T14:06:37.834Z,33.60
2018-05-29T14:09:06.199Z,34.60
2018-05-29T14:11:35.353Z,35.00
2018-05-29T14:14:04.197Z,35.00
2018-05-29T14:16:32.664Z,32.10
2018-05-29T14:19:01.032Z,33.70
2018-05-29T14:21:29.372Z,32.40
2018-05-29T14:23:57.749Z,30.50
2018-05-29T14:26:26.001Z,29.70
2018-05-29T14:28:54.485Z,30.00
2018-05-29T14:31:22.801Z,29.60
2018-05-29T14:33:51.050Z,27.90
2018-05-29T14:36:19.357Z,29.50
2018-05-29T14:38:47.682Z,29.80
2018-05-29T14:41:16.049Z,30.50
2018-05-29T14:43:44.391Z,29.30
2018-05-29T14:46:12.809Z,30.50
2018-05-29T14:48:41.060Z,29.70
2018-05-29T14:51:09.304Z,30.50
2018-05-29T14:53:37.580Z,30.60
2018-05-29T14:56:05.934Z,30.70
2018-05-29T14:58:34.165Z,29.70
2018-05-29T15:01:02.489Z,30.60
2018-05-29T15:03:30.799Z,31.60
2018-05-29T15:05:59.177Z,32.80
2018-05-29T15:08:27.444Z,33.20
2018-05-29T15:10:55.877Z,34.40
2018-05-29T15:13:24.265Z,35.10
2018-05-29T15:15:52.563Z,35.40
2018-05-29T15:18:21.017Z,34.80
2018-05-29T15:20:49.282Z,34.80
2018-05-29T15:23:17.724Z,36.20
2018-05-29T15:25:45.978Z,34.90
2018-05-29T15:28:15.453Z,35.10
2018-05-29T15:30:43.729Z,33.80
2018-05-29T15:33:12.029Z,33.60
2018-05-29T15:35:40.235Z,33.80
2018-05-29T15:38:09.036Z,33.50
2018-05-29T15:40:37.309Z,34.10
2018-05-29T15:43:05.736Z,34.90
2018-05-29T15:45:34.505Z,35.80
2018-05-29T15:48:03.409Z,37.50
2018-05-29T15:50:31.784Z,38.10
2018-05-29T15:53:00.232Z,36.80
2018-05-29T15:55:28.556Z,37.00
2018-05-29T15:57:56.924Z,38.90
2018-05-29T16:00:25.502Z,40.40
2018-05-29T16:02:53.988Z,41.50
2018-05-29T16:05:22.377Z,42.20
2018-05-29T16:07:51.132Z,42.90
2018-05-29T16:10:19.441Z,43.30
2018-05-29T16:12:47.684Z,44.40
2018-05-29T16:15:16.260Z,44.80
2018-05-29T16:17:44.505Z,45.00
2018-05-29T16:20:12.756Z,45.70
2018-05-29T16:22:41.033Z,44.90
2018-05-29T16:25:09.283Z,46.10
2018-05-29T16:27:37.538Z,45.90
2018-05-29T16:30:07.156Z,47.10
2018-05-29T16:32:35.470Z,47.90
2018-05-29T16:35:03.706Z,48.80
2018-05-29T16:37:31.985Z,49.20
2018-05-29T16:40:00.361Z,49.20
2018-05-29T16:42:28.784Z,49.80
2018-05-29T16:44:57.085Z,50.70
2018-05-29T16:47:26.092Z,49.70
2018-05-29T16:49:55.678Z,48.60
2018-05-29T16:52:25.997Z,48.40
2018-05-29T16:54:55.172Z,47.60
2018-05-29T16:57:23.857Z,47.60
2018-05-29T16:59:52.276Z,46.90
2018-05-29T17:02:21.730Z,47.30
2018-05-29T17:04:50.390Z,47.30
2018-05-29T17:07:18.593Z,47.60
2018-05-29T17:09:46.986Z,47.60
2018-05-29T17:12:15.357Z,47.90
2018-05-29T17:14:43.866Z,48.00
2018-05-29T17:17:14.573Z,49.20
2018-05-29T17:19:43.149Z,49.90
2018-05-29T17:22:11.421Z,51.60
2018-05-29T17:24:39.805Z,52.60
2018-05-29T17:27:08.085Z,52.20
2018-05-29T17:29:36.356Z,50.60
2018-05-29T17:32:05.777Z,48.90
2018-05-29T17:34:34.153Z,48.00
2018-05-29T17:37:03.840Z,47.80
2018-05-29T17:39:32.335Z,47.90
2018-05-29T17:42:00.731Z,48.20
2018-05-29T17:44:29.205Z,47.30
2018-05-29T17:46:59.616Z,47.30
2018-05-29T17:49:27.857Z,47.20
2018-05-29T17:51:56.213Z,47.50
2018-05-29T17:54:25.248Z,47.50
2018-05-29T17:56:53.556Z,47.50
2018-05-29T17:59:22.323Z,47.60
2018-05-29T18:01:50.621Z,47.30
2018-05-29T18:04:18.996Z,47.50
2018-05-29T18:06:47.396Z,48.30
2018-05-29T18:09:17.933Z,48.50
2018-05-29T18:11:48.176Z,49.80
2018-05-29T18:14:17.452Z,49.70
2018-05-29T18:16:46.465Z,50.30
2018-05-29T18:19:14.787Z,50.30
2018-05-29T18:21:43.252Z,51.90
2018-05-29T18:24:11.481Z,50.80
2018-05-29T18:26:40.182Z,50.10
2018-05-29T18:29:08.396Z,50.70
2018-05-29T18:31:37.613Z,49.90
2018-05-29T18:34:06.017Z,50.30
2018-05-29T18:36:35.078Z,50.30
2018-05-29T18:39:03.316Z,50.30
2018-05-29T18:41:31.831Z,50.90
2018-05-29T18:44:00.173Z,51.40
2018-05-29T18:46:28.425Z,52.00
2018-05-29T18:48:56.715Z,51.50
2018-05-29T18:51:24.945Z,53.20
2018-05-29T18:53:53.336Z,52.90
2018-05-29T18:56:21.645Z,53.00
2018-05-29T18:58:50.300Z,52.90
2018-05-29T19:01:18.828Z,52.60
2018-05-29T19:03:47.549Z,52.60
2018-05-29T19:06:15.866Z,53.50
2018-05-29T19:08:44.124Z,53.50
2018-05-29T19:11:12.697Z,53.80
2018-05-29T19:13:41.072Z,54.40
2018-05-29T19:16:09.405Z,54.30
2018-05-29T19:18:38.516Z,55.10
2018-05-29T19:21:06.768Z,55.10
2018-05-29T19:23:35.784Z,54.50
2018-05-29T19:26:04.111Z,54.50
2018-05-29T19:28:32.487Z,54.00
2018-05-29T19:31:01.792Z,53.90
2018-05-29T19:33:30.201Z,54.10
2018-05-29T19:35:59.473Z,53.30
2018-05-29T19:38:27.848Z,53.30
2018-05-29T19:40:56.427Z,53.40
2018-05-29T19:43:24.659Z,53.60
2018-05-29T19:45:52.912Z,54.20
2018-05-29T19:48:21.559Z,54.50
2018-05-29T19:50:51.186Z,53.90
2018-05-29T19:53:19.412Z,54.00
2018-05-29T19:55:47.688Z,54.60
2018-05-29T19:58:15.932Z,54.80
2018-05-29T20:00:44.953Z,55.60
2018-05-29T20:03:13.225Z,54.90
2018-05-29T20:05:41.480Z,56.30
2018-05-29T20:08:09.722Z,56.40
2018-05-29T20:10:38.076Z,57.30
2018-05-29T20:13:06.332Z,58.40
2018-05-29T20:15:34.568Z,59.30
2018-05-29T20:18:02.854Z,61.50
2018-05-29T20:20:31.865Z,62.90
2018-05-29T20:23:00.879Z,63.90
2018-05-29T20:25:29.915Z,64.50
2018-05-29T20:27:58.165Z,64.30
2018-05-29T20:30:26.413Z,63.10
2018-05-29T20:32:55.025Z,63.90
2018-05-29T20:35:23.281Z,64.30
2018-05-29T20:37:51.540Z,63.50
2018-05-29T20:40:20.576Z,62.60
2018-05-29T20:42:48.834Z,62.60
2018-05-29T20:45:17.077Z,63.60
2018-05-29T20:47:45.351Z,65.40
2018-05-29T20:50:14.428Z,64.10
2018-05-29T20:52:42.680Z,64.00
2018-05-29T20:55:11.363Z,61.80
2018-05-29T20:57:40.004Z,62.30
2018-05-29T21:00:09.012Z,61.80
2018-05-29T21:02:39.211Z,61.90
2018-05-29T21:05:08.259Z,65.10
2018-05-29T21:07:36.583Z,65.00
2018-05-29T21:10:05.625Z,64.00
2018-05-29T21:12:33.877Z,64.00
2018-05-29T21:15:02.192Z,62.50
2018-05-29T21:17:30.496Z,62.80
2018-05-29T21:19:59.504Z,63.00
2018-05-29T21:22:28.532Z,63.40
2018-05-29T21:24:56.816Z,63.40
2018-05-29T21:27:25.064Z,65.60
2018-05-29T21:29:53.322Z,65.90
2018-05-29T21:32:21.576Z,66.50
2018-05-29T21:34:49.830Z,66.20
2018-05-29T21:37:18.097Z,65.90
2018-05-29T21:39:46.785Z,65.10
2018-05-29T21:42:15.049Z,65.90
2018-05-29T21:44:43.296Z,65.70
2018-05-29T21:47:12.343Z,66.70
2018-05-29T21:49:40.592Z,66.70
2018-05-29T21:52:08.840Z,66.40
2018-05-29T21:54:37.881Z,67.50
2018-05-29T21:57:06.141Z,67.40
2018-05-29T21:59:34.705Z,68.90
2018-05-29T22:02:03.033Z,72.70
2018-05-29T22:04:31.290Z,70.40
2018-05-29T22:06:59.529Z,70.00
2018-05-29T22:09:28.581Z,69.70
2018-05-29T22:11:56.835Z,69.70
2018-05-29T22:14:25.072Z,70.50
2018-05-29T22:16:54.123Z,75.00
2018-05-29T22:19:22.372Z,75.00
2018-05-29T22:21:50.621Z,72.20
2018-05-29T22:24:19.036Z,70.70
2018-05-29T22:26:47.314Z,71.00
2018-05-29T22:29:15.564Z,71.20
2018-05-29T22:31:43.840Z,71.50
2018-05-29T22:34:12.103Z,71.70
2018-05-29T22:36:40.362Z,72.00
2018-05-29T22:39:08.623Z,73.10
2018-05-29T22:41:36.887Z,73.70
2018-05-29T22:44:05.177Z,75.40
2018-05-29T22:46:33.642Z,73.50
2018-05-29T22:49:01.897Z,74.80
2018-05-29T22:51:30.147Z,75.50
2018-05-29T22:53:58.416Z,75.70
2018-05-29T22:56:27.441Z,76.40
2018-05-29T22:58:55.706Z,76.30
2018-05-29T23:01:24.197Z,76.10
2018-05-29T23:03:52.449Z,75.60
2018-05-29T23:06:20.711Z,76.70
2018-05-29T23:08:49.968Z,75.90
2018-05-29T23:11:18.240Z,75.80
2018-05-29T23:13:46.479Z,77.70
2018-05-29T23:16:14.755Z,77.90
2018-05-29T23:18:43.772Z,76.60
2018-05-29T23:21:12.024Z,77.40
2018-05-29T23:23:40.495Z,76.60
2018-05-29T23:26:09.512Z,77.00
2018-05-29T23:28:37.752Z,76.90
2018-05-29T23:31:06.310Z,77.40
2018-05-29T23:33:34.559Z,76.70
2018-05-29T23:36:02.810Z,80.50
2018-05-29T23:38:31.852Z,77.80
2018-05-29T23:41:00.103Z,77.80
2018-05-29T23:43:28.486Z,79.50
2018-05-29T23:45:56.767Z,79.00
2018-05-29T23:48:25.011Z,78.90
2018-05-29T23:50:54.029Z,79.80
2018-05-29T23:53:22.578Z,80.60
2018-05-29T23:55:51.876Z,87.10
2018-05-29T23:58:20.886Z,85.20
